Kimball, Minnesota
Current Conditions -  °F | °C
As of 6:33 PM on Friday 19 Dec 2014 (Local Time) from KLJF Reporting Station
Haze Haze  
Wind Chill: 25°   Ceiling: 1500
Heat Index: 30°   Visibility: 5mi
Dew Point: 30°   Wind: 5mph
Humidity: 100%   Direction: 150°SSE
Pressure: 30.14"   Gusts: NA
Location:  45.31°N, 94.3°W
Report Text: KLJF 200033Z AUTO 15004KT 5SM BR SCT008 OVC015 M01/M01 A3014 RMK AO2
Loading
Personal Weather Stations






























Interactive Weather Map New forecast layout! Learn more

10-Day Weather Forecast

Advertisements
Track Severe Weather on mobile